createdAt,value
2023-02-13T00:00:51.859Z,102788.69
2023-02-13T00:03:19.686Z,102786.56
2023-02-13T00:05:47.303Z,102783.41
2023-02-13T00:08:14.752Z,102786.78
2023-02-13T00:10:42.544Z,102792.72
2023-02-13T00:13:09.990Z,102795.06
2023-02-13T00:15:37.550Z,102782.09
2023-02-13T00:18:05.514Z,102790.94
2023-02-13T00:20:33.201Z,102784.81
2023-02-13T00:23:00.886Z,102781.09
2023-02-13T00:25:28.632Z,102777.91
2023-02-13T00:27:56.715Z,102786.66
2023-02-13T00:30:24.308Z,102774.47
2023-02-13T00:32:52.165Z,102761.53
2023-02-13T00:35:19.701Z,102763.97
2023-02-13T00:37:47.261Z,102771.00
2023-02-13T00:40:15.435Z,102764.44
2023-02-13T00:42:42.974Z,102773.25
2023-02-13T00:45:10.464Z,102775.87
2023-02-13T00:47:38.449Z,102779.41
2023-02-13T00:50:06.515Z,102767.47
2023-02-13T00:52:34.042Z,102776.50
2023-02-13T00:55:01.946Z,102774.66
2023-02-13T00:57:31.200Z,102771.34
2023-02-13T00:59:59.077Z,102782.78
2023-02-13T01:02:26.986Z,102774.78
2023-02-13T01:04:56.089Z,102784.03
2023-02-13T01:07:25.106Z,102781.09
2023-02-13T01:09:52.939Z,102784.47
2023-02-13T01:12:20.502Z,102791.25
2023-02-13T01:14:48.024Z,102782.47
2023-02-13T01:17:16.494Z,102780.47
2023-02-13T01:19:44.295Z,102777.69
2023-02-13T01:22:11.761Z,102780.66
2023-02-13T01:24:41.138Z,102788.34
2023-02-13T01:27:08.750Z,102789.16
2023-02-13T01:29:36.567Z,102794.84
2023-02-13T01:32:05.312Z,102785.72
2023-02-13T01:34:34.185Z,102784.88
2023-02-13T01:37:01.700Z,102791.19
2023-02-13T01:39:29.533Z,102788.87
2023-02-13T01:41:57.102Z,102792.19
2023-02-13T01:44:51.200Z,102788.63
2023-02-13T01:47:26.811Z,102787.13
2023-02-13T01:50:11.485Z,102797.69
2023-02-13T01:52:42.511Z,102796.13
2023-02-13T01:55:11.478Z,102794.66
2023-02-13T01:57:40.372Z,102798.78
2023-02-13T02:00:11.033Z,102800.81
2023-02-13T02:02:52.163Z,102794.34
2023-02-13T02:05:22.341Z,102790.72
2023-02-13T02:07:50.342Z,102787.94
2023-02-13T02:10:21.420Z,102786.50
2023-02-13T02:13:11.630Z,102787.16
2023-02-13T02:15:40.884Z,102790.47
2023-02-13T02:18:20.313Z,102792.00
2023-02-13T02:21:11.971Z,102791.78
2023-02-13T02:24:01.419Z,102790.19
2023-02-13T02:26:51.920Z,102786.78
2023-02-13T02:29:48.081Z,102773.03
2023-02-13T02:32:50.075Z,102774.94
2023-02-13T02:35:45.068Z,102783.34
2023-02-13T02:38:22.520Z,102787.13
2023-02-13T02:41:03.962Z,102795.06
2023-02-13T02:44:00.137Z,102794.44
2023-02-13T02:46:39.155Z,102788.75
2023-02-13T02:49:34.110Z,102789.09
2023-02-13T02:52:06.603Z,102787.47
2023-02-13T02:55:10.910Z,102787.72
2023-02-13T02:58:10.891Z,102791.25
2023-02-13T03:01:01.122Z,102794.62
2023-02-13T03:03:48.124Z,102796.28
2023-02-13T03:06:23.846Z,102780.81
2023-02-13T03:09:21.042Z,102797.53
2023-02-13T03:12:10.202Z,102788.87
2023-02-13T03:14:38.144Z,102785.66
2023-02-13T03:17:24.974Z,102780.47
2023-02-13T03:20:26.775Z,102772.78
2023-02-13T03:23:38.667Z,102783.91
2023-02-13T03:26:33.206Z,102778.44
2023-02-13T03:29:35.232Z,102780.38
2023-02-13T03:32:19.724Z,102784.84
2023-02-13T03:35:13.470Z,102778.56
2023-02-13T03:37:56.849Z,102784.78
2023-02-13T03:40:36.759Z,102783.47
2023-02-13T03:43:13.605Z,102788.94
2023-02-13T03:45:53.036Z,102789.13
2023-02-13T03:48:44.144Z,102791.81
2023-02-13T03:51:16.263Z,102777.91
2023-02-13T03:53:46.800Z,102779.03
2023-02-13T03:56:35.596Z,102787.44
2023-02-13T03:59:17.169Z,102782.59
2023-02-13T04:02:00.198Z,102759.09
2023-02-13T04:04:34.568Z,102764.22
2023-02-13T04:07:02.039Z,102772.75
2023-02-13T04:09:30.411Z,102766.28
2023-02-13T04:12:06.467Z,102779.16
2023-02-13T04:14:41.045Z,102776.59
2023-02-13T04:17:12.788Z,102780.88
2023-02-13T04:19:40.806Z,102774.91
2023-02-13T04:22:08.722Z,102785.97
2023-02-13T04:24:36.268Z,102782.84
2023-02-13T04:27:04.108Z,102778.59
2023-02-13T04:29:31.614Z,102780.44
2023-02-13T04:31:59.231Z,102777.97
2023-02-13T04:34:27.082Z,102780.91
2023-02-13T04:36:54.612Z,102782.81
2023-02-13T04:39:22.205Z,102788.16
2023-02-13T04:41:50.054Z,102790.97
2023-02-13T04:44:17.612Z,102793.09
2023-02-13T04:46:45.112Z,102784.47
2023-02-13T04:49:13.064Z,102796.41
2023-02-13T04:51:40.643Z,102793.53
2023-02-13T04:54:08.147Z,102781.50
2023-02-13T04:56:35.868Z,102781.63
2023-02-13T04:59:03.702Z,102783.47
2023-02-13T05:01:31.308Z,102788.34
2023-02-13T05:03:59.153Z,102791.78
2023-02-13T05:06:26.802Z,102796.25
2023-02-13T05:08:54.369Z,102797.69
2023-02-13T05:11:22.536Z,102796.72
2023-02-13T05:13:50.051Z,102797.69
2023-02-13T05:16:17.567Z,102803.16
2023-02-13T05:18:45.407Z,102795.97
2023-02-13T05:21:32.138Z,102791.69
2023-02-13T05:23:59.961Z,102801.47
2023-02-13T05:26:27.417Z,102793.81
2023-02-13T05:29:13.604Z,102793.66
2023-02-13T05:31:41.453Z,102793.97
2023-02-13T05:34:09.129Z,102792.56
2023-02-13T05:36:36.682Z,102792.56
2023-02-13T05:39:04.468Z,102796.69
2023-02-13T05:41:32.367Z,102800.03
2023-02-13T05:44:00.116Z,102813.41
2023-02-13T05:46:27.978Z,102817.06
2023-02-13T05:48:55.506Z,102814.69
2023-02-13T05:51:23.015Z,102813.94
2023-02-13T05:53:50.812Z,102811.00
2023-02-13T05:56:18.323Z,102802.41
2023-02-13T05:58:45.852Z,102811.62
2023-02-13T06:01:13.830Z,102805.28
2023-02-13T06:03:41.677Z,102798.00
2023-02-13T06:06:09.436Z,102801.72
2023-02-13T06:08:38.829Z,102800.34
2023-02-13T06:11:06.707Z,102804.88
2023-02-13T06:13:34.370Z,102792.66
2023-02-13T06:16:02.038Z,102798.69
2023-02-13T06:18:29.973Z,102800.25
2023-02-13T06:20:57.823Z,102799.56
2023-02-13T06:23:25.525Z,102806.72
2023-02-13T06:25:53.445Z,102795.00
2023-02-13T06:28:21.070Z,102793.56
2023-02-13T06:30:49.284Z,102799.87
2023-02-13T06:33:17.292Z,102796.06
2023-02-13T06:35:44.862Z,102791.44
2023-02-13T06:38:12.473Z,102801.44
2023-02-13T06:40:40.445Z,102806.13
2023-02-13T06:43:07.924Z,102803.84
2023-02-13T06:45:35.506Z,102807.66
2023-02-13T06:48:03.512Z,102812.38
2023-02-13T06:50:31.243Z,102810.97
2023-02-13T06:52:58.862Z,102805.69
2023-02-13T06:55:28.040Z,102822.56
2023-02-13T06:57:56.019Z,102815.94
2023-02-13T07:00:26.102Z,102824.75
2023-02-13T07:02:54.818Z,102822.41
2023-02-13T07:05:22.663Z,102815.81
2023-02-13T07:07:50.698Z,102828.09
2023-02-13T07:10:19.556Z,102822.28
2023-02-13T07:12:56.823Z,102814.75
2023-02-13T07:15:32.958Z,102818.81
2023-02-13T07:18:01.672Z,102811.31
2023-02-13T07:20:29.637Z,102818.69
2023-02-13T07:22:59.268Z,102828.44
2023-02-13T07:25:27.556Z,102817.44
2023-02-13T07:27:55.375Z,102822.25
2023-02-13T07:30:23.399Z,102820.09
2023-02-13T07:32:52.103Z,102822.22
2023-02-13T07:35:19.583Z,102821.84
2023-02-13T07:37:47.282Z,102819.56
2023-02-13T07:40:14.820Z,102824.47
2023-02-13T07:42:42.404Z,102817.75
2023-02-13T07:45:11.972Z,102804.16
2023-02-13T07:47:40.193Z,102813.28
2023-02-13T07:50:08.770Z,102816.31
2023-02-13T07:52:37.959Z,102815.81
2023-02-13T07:55:06.483Z,102816.19
2023-02-13T07:57:34.609Z,102818.41
2023-02-13T08:00:02.793Z,102821.31
2023-02-13T08:02:39.585Z,102813.88
2023-02-13T08:05:08.108Z,102814.31
2023-02-13T08:07:35.631Z,102806.06
2023-02-13T08:10:22.702Z,102806.75
2023-02-13T08:12:51.692Z,102803.63
2023-02-13T08:15:19.446Z,102806.56
2023-02-13T08:17:47.017Z,102811.09
2023-02-13T08:20:14.888Z,102807.75
2023-02-13T08:22:42.525Z,102806.41
2023-02-13T08:25:10.033Z,102807.59
2023-02-13T08:27:38.745Z,102809.59
2023-02-13T08:30:08.097Z,102809.81
2023-02-13T08:32:52.077Z,102805.91
2023-02-13T08:35:23.980Z,102800.13
2023-02-13T08:37:51.498Z,102796.19
2023-02-13T08:40:19.296Z,102794.78
2023-02-13T08:42:59.255Z,102798.41
2023-02-13T08:45:27.017Z,102802.06
2023-02-13T08:47:59.206Z,102810.41
2023-02-13T08:50:27.667Z,102807.03
2023-02-13T08:52:56.026Z,102797.62
2023-02-13T08:55:23.620Z,102808.41
2023-02-13T08:57:51.215Z,102798.03
2023-02-13T09:00:19.443Z,102804.72
2023-02-13T09:02:47.059Z,102809.19
2023-02-13T09:05:14.792Z,102811.97
2023-02-13T09:07:42.584Z,102814.75
2023-02-13T09:10:10.458Z,102808.78
2023-02-13T09:12:38.108Z,102815.34
2023-02-13T09:15:06.066Z,102810.66
2023-02-13T09:17:33.792Z,102817.31
2023-02-13T09:20:01.286Z,102814.38
2023-02-13T09:22:29.173Z,102809.25
2023-02-13T09:24:56.779Z,102802.41
2023-02-13T09:27:24.277Z,102812.13
2023-02-13T09:29:52.316Z,102816.66
2023-02-13T09:32:19.856Z,102822.28
2023-02-13T09:34:47.591Z,102824.47
2023-02-13T09:37:15.492Z,102819.19
2023-02-13T09:39:43.067Z,102818.91
2023-02-13T09:42:20.685Z,102819.97
2023-02-13T09:44:49.020Z,102817.41
2023-02-13T09:47:20.483Z,102822.00
2023-02-13T09:49:52.981Z,102816.94
2023-02-13T09:52:20.684Z,102818.03
2023-02-13T09:54:48.463Z,102815.22
2023-02-13T09:57:24.936Z,102812.59
2023-02-13T10:00:00.939Z,102818.97
2023-02-13T10:02:34.484Z,102809.66
2023-02-13T10:05:27.337Z,102809.59
2023-02-13T10:08:04.125Z,102802.03
2023-02-13T10:10:54.102Z,102797.81
2023-02-13T10:13:40.540Z,102811.06
2023-02-13T10:16:24.251Z,102808.47
2023-02-13T10:18:59.940Z,102793.78
2023-02-13T10:21:34.867Z,102791.31
2023-02-13T10:24:11.060Z,102791.31
2023-02-13T10:26:43.760Z,102793.16
2023-02-13T10:30:01.115Z,102779.41
2023-02-13T10:32:34.546Z,102776.94
2023-02-13T10:35:03.674Z,102781.63
2023-02-13T10:37:31.800Z,102770.38
2023-02-13T10:39:59.314Z,102764.41
2023-02-13T10:42:34.235Z,102766.25
2023-02-13T10:45:17.288Z,102760.16
2023-02-13T10:48:06.734Z,102748.13
2023-02-13T10:50:47.401Z,102755.13
2023-02-13T10:53:42.217Z,102747.38
2023-02-13T10:56:23.089Z,102745.75
2023-02-13T10:58:53.461Z,102742.25
2023-02-13T11:01:33.420Z,102732.84
2023-02-13T11:04:08.389Z,102736.38
2023-02-13T11:06:38.233Z,102731.16
2023-02-13T11:09:09.709Z,102737.25
2023-02-13T11:11:39.584Z,102731.25
2023-02-13T11:14:18.927Z,102733.88
2023-02-13T11:17:22.194Z,102731.28
2023-02-13T11:19:51.998Z,102722.63
2023-02-13T11:22:46.243Z,102715.66
2023-02-13T11:25:30.040Z,102712.22
2023-02-13T11:28:18.584Z,102718.34
2023-02-13T11:30:46.554Z,102704.41
2023-02-13T11:33:17.544Z,102712.25
2023-02-13T11:39:56.716Z,102701.75
2023-02-13T11:42:28.277Z,102696.56
2023-02-13T11:45:29.784Z,102696.56
2023-02-13T11:48:01.061Z,102693.06
2023-02-13T11:50:35.074Z,102690.44
2023-02-13T11:53:07.591Z,102688.72
2023-02-13T11:55:38.388Z,102685.22
2023-02-13T11:58:12.125Z,102684.34
2023-02-13T12:00:46.141Z,102670.41
2023-02-13T12:03:22.440Z,102674.75
2023-02-13T12:06:07.829Z,102680.87
2023-02-13T12:08:38.748Z,102671.25
2023-02-13T12:11:29.403Z,102664.25
2023-02-13T12:13:57.731Z,102659.88
2023-02-13T12:16:47.239Z,102659.00
2023-02-13T12:19:34.014Z,102660.75
2023-02-13T12:22:07.664Z,102659.00
2023-02-13T12:24:57.589Z,102650.25
2023-02-13T12:27:44.973Z,102638.00
2023-02-13T12:30:48.323Z,102645.00
2023-02-13T12:33:38.801Z,102645.84
2023-02-13T12:36:18.976Z,102651.13
2023-02-13T12:39:12.921Z,102638.00
2023-02-13T12:41:49.949Z,102633.63
2023-02-13T12:44:39.242Z,102636.25
2023-02-13T12:47:17.738Z,102627.53
2023-02-13T12:50:20.905Z,102636.19
2023-02-13T12:53:34.610Z,102623.13
2023-02-13T12:56:47.113Z,102617.91
2023-02-13T12:59:30.108Z,102622.28
2023-02-13T13:02:27.498Z,102618.78
2023-02-13T13:05:02.151Z,102622.31
2023-02-13T13:07:41.404Z,102613.53
2023-02-13T13:10:12.197Z,102606.53
2023-02-13T13:12:44.566Z,102602.22
2023-02-13T13:15:35.466Z,102615.38
2023-02-13T13:18:24.628Z,102605.78
2023-02-13T13:21:00.030Z,102597.06
2023-02-13T13:23:39.979Z,102598.81
2023-02-13T13:26:37.836Z,102594.47
2023-02-13T13:29:11.493Z,102597.09
2023-02-13T13:31:59.591Z,102590.09
2023-02-13T13:34:29.108Z,102589.19
2023-02-13T13:37:15.768Z,102583.06
2023-02-13T13:39:57.666Z,102589.16
2023-02-13T13:42:32.353Z,102579.59
2023-02-13T13:45:05.957Z,102575.19
2023-02-13T13:47:47.359Z,102584.75
2023-02-13T13:50:27.015Z,102583.00
2023-02-13T13:53:16.097Z,102571.66
2023-02-13T13:55:46.811Z,102569.09
2023-02-13T13:58:31.576Z,102571.72
2023-02-13T14:01:18.130Z,102565.59
2023-02-13T14:03:47.995Z,102559.47
2023-02-13T14:06:21.530Z,102555.13
2023-02-13T14:08:49.703Z,102555.97
2023-02-13T14:11:29.568Z,102554.22
2023-02-13T14:13:57.969Z,102549.00
2023-02-13T14:16:43.120Z,102553.38
2023-02-13T14:19:27.294Z,102559.47
2023-02-13T14:21:56.226Z,102553.38
2023-02-13T14:24:24.956Z,102533.34
2023-02-13T14:27:04.605Z,102540.34
2023-02-13T14:29:33.826Z,102542.94
2023-02-13T14:32:05.747Z,102537.72
2023-02-13T14:34:36.499Z,102529.00
2023-02-13T14:37:20.879Z,102535.13
2023-02-13T14:40:18.084Z,102540.34
2023-02-13T14:42:55.175Z,102543.88
2023-02-13T14:45:27.413Z,102543.00
2023-02-13T14:47:57.273Z,102550.88
2023-02-13T14:50:30.822Z,102537.78
2023-02-13T14:53:01.181Z,102545.63
2023-02-13T14:55:48.575Z,102536.91
2023-02-13T14:58:37.014Z,102548.25
2023-02-13T15:01:35.273Z,102544.75
2023-02-13T15:04:24.601Z,102546.50
2023-02-13T15:06:54.336Z,102543.03
2023-02-13T15:09:28.560Z,102542.16
2023-02-13T15:11:56.562Z,102536.91
2023-02-13T15:14:33.496Z,102543.00
2023-02-13T15:17:14.944Z,102549.97
2023-02-13T15:19:51.057Z,102553.47
2023-02-13T15:22:27.918Z,102554.31
2023-02-13T15:24:55.611Z,102563.91
2023-02-13T15:27:40.789Z,102563.03
2023-02-13T15:30:21.060Z,102565.63
2023-02-13T15:32:55.386Z,102558.63
2023-02-13T15:35:29.130Z,102561.25
2023-02-13T15:37:57.526Z,102556.84
2023-02-13T15:40:26.413Z,102555.06
2023-02-13T15:42:54.772Z,102555.94
2023-02-13T15:45:23.849Z,102560.25
2023-02-13T15:47:52.232Z,102555.00
2023-02-13T15:50:31.147Z,102561.03
2023-02-13T15:53:01.109Z,102554.88
2023-02-13T15:55:33.301Z,102560.12
2023-02-13T15:58:02.063Z,102564.38
2023-02-13T16:00:32.877Z,102561.69
2023-02-13T16:03:02.726Z,102566.78
2023-02-13T16:05:40.510Z,102554.50
2023-02-13T16:08:43.929Z,102566.66
2023-02-13T16:11:28.841Z,102565.72
2023-02-13T16:14:24.810Z,102556.91
2023-02-13T16:16:56.355Z,102558.41
2023-02-13T16:19:30.845Z,102571.56
2023-02-13T16:22:01.891Z,102573.19
2023-02-13T16:24:30.070Z,102569.59
2023-02-13T16:26:58.050Z,102571.31
2023-02-13T16:29:27.333Z,102575.50
2023-02-13T16:32:03.963Z,102580.75
2023-02-13T16:34:32.376Z,102581.47
2023-02-13T16:37:00.473Z,102585.69
2023-02-13T16:39:33.181Z,102584.91
2023-02-13T16:42:02.273Z,102592.56
2023-02-13T16:44:32.171Z,102587.25
2023-02-13T16:47:04.579Z,102587.22
2023-02-13T16:49:33.989Z,102576.69
2023-02-13T16:52:19.286Z,102586.13
2023-02-13T16:55:00.864Z,102577.22
2023-02-13T16:57:33.811Z,102594.59
2023-02-13T17:00:06.132Z,102596.37
2023-02-13T17:02:38.554Z,102598.84
2023-02-13T17:05:09.568Z,102587.47
2023-02-13T17:07:43.700Z,102599.56
2023-02-13T17:10:27.837Z,102602.09
2023-02-13T17:12:59.322Z,102593.41
2023-02-13T17:15:29.604Z,102592.41
2023-02-13T17:17:57.757Z,102587.97
2023-02-13T17:20:31.351Z,102593.03
2023-02-13T17:23:01.595Z,102584.12
2023-02-13T17:25:36.557Z,102584.97
2023-02-13T17:28:12.872Z,102581.34
2023-02-13T17:30:41.480Z,102570.78
2023-02-13T17:33:15.580Z,102586.34
2023-02-13T17:35:43.358Z,102577.47
2023-02-13T17:38:11.463Z,102573.00
2023-02-13T17:40:40.799Z,102572.00
2023-02-13T17:43:10.526Z,102571.06
2023-02-13T17:45:38.827Z,102571.69
2023-02-13T17:48:06.829Z,102576.78
2023-02-13T17:50:35.015Z,102581.00
2023-02-13T17:53:11.343Z,102573.09
2023-02-13T17:55:39.136Z,102563.34
2023-02-13T17:58:07.244Z,102556.34
2023-02-13T18:00:35.576Z,102571.06
2023-02-13T18:03:04.641Z,102574.00
2023-02-13T18:05:33.234Z,102560.06
2023-02-13T18:08:03.896Z,102558.25
2023-02-13T18:10:34.258Z,102561.75
2023-02-13T18:13:05.870Z,102552.13
2023-02-13T18:15:35.795Z,102552.00
2023-02-13T18:18:03.963Z,102551.75
2023-02-13T18:20:31.701Z,102554.28
2023-02-13T18:22:59.893Z,102555.06
2023-02-13T18:25:27.737Z,102547.84
2023-02-13T18:27:55.582Z,102550.62
2023-02-13T18:30:23.707Z,102544.47
2023-02-13T18:32:53.584Z,102545.34
2023-02-13T18:35:22.348Z,102548.72
2023-02-13T18:37:51.381Z,102542.47
2023-02-13T18:40:19.608Z,102533.69
2023-02-13T18:42:48.124Z,102537.97
2023-02-13T18:45:17.354Z,102531.84
2023-02-13T18:47:44.982Z,102533.56
2023-02-13T18:50:13.594Z,102526.53
2023-02-13T18:52:41.749Z,102534.41
2023-02-13T18:55:09.623Z,102536.28
2023-02-13T18:57:37.243Z,102526.78
2023-02-13T19:00:07.205Z,102531.97
2023-02-13T19:02:35.088Z,102526.53
2023-02-13T19:05:02.846Z,102531.09
2023-02-13T19:07:31.165Z,102524.31
2023-02-13T19:09:59.095Z,102527.88
2023-02-13T19:12:26.883Z,102505.25
2023-02-13T19:14:55.094Z,102507.03
2023-02-13T19:17:23.028Z,102516.75
2023-02-13T19:19:51.733Z,102514.16
2023-02-13T19:22:19.860Z,102504.47
2023-02-13T19:24:47.926Z,102510.63
2023-02-13T19:27:15.862Z,102511.50
2023-02-13T19:29:44.575Z,102499.22
2023-02-13T19:32:12.722Z,102506.22
2023-02-13T19:34:41.199Z,102502.81
2023-02-13T19:37:09.250Z,102494.03
2023-02-13T19:39:37.223Z,102494.97
2023-02-13T19:42:05.275Z,102500.34
2023-02-13T19:44:33.359Z,102508.00
2023-02-13T19:47:00.921Z,102491.59
2023-02-13T19:49:28.639Z,102492.34
2023-02-13T19:51:56.423Z,102488.13
2023-02-13T19:54:24.183Z,102495.81
2023-02-13T19:56:54.729Z,102490.47
2023-02-13T19:59:22.648Z,102487.78
2023-02-13T20:01:50.520Z,102484.31
2023-02-13T20:04:19.255Z,102497.38
2023-02-13T20:06:47.098Z,102495.47
2023-02-13T20:09:15.058Z,102496.34
2023-02-13T20:11:43.743Z,102494.78
2023-02-13T20:14:14.834Z,102488.56
2023-02-13T20:16:45.634Z,102485.06
2023-02-13T20:19:17.592Z,102478.97
2023-02-13T20:21:45.943Z,102479.03
2023-02-13T20:24:13.742Z,102471.28
2023-02-13T20:26:42.022Z,102481.72
2023-02-13T20:29:10.288Z,102480.00
2023-02-13T20:31:41.314Z,102473.94
2023-02-13T20:34:09.936Z,102479.22
2023-02-13T20:36:38.029Z,102481.25
2023-02-13T20:39:07.685Z,102481.13
2023-02-13T20:41:36.984Z,102474.13
2023-02-13T20:44:08.153Z,102468.84
2023-02-13T20:46:37.868Z,102474.34
2023-02-13T20:49:05.783Z,102478.03
2023-02-13T20:51:33.749Z,102476.16
2023-02-13T20:54:01.708Z,102477.97
2023-02-13T20:56:29.898Z,102477.09
2023-02-13T20:58:59.507Z,102481.41
2023-02-13T21:01:35.443Z,102478.03
2023-02-13T21:04:03.637Z,102471.13
2023-02-13T21:06:33.773Z,102467.75
2023-02-13T21:09:02.953Z,102461.59
2023-02-13T21:11:31.523Z,102461.69
2023-02-13T21:14:02.936Z,102469.63
2023-02-13T21:16:34.359Z,102456.50
2023-02-13T21:19:05.489Z,102434.81
2023-02-13T21:21:35.183Z,102440.97
2023-02-13T21:24:08.193Z,102438.28
2023-02-13T21:26:36.886Z,102440.97
2023-02-13T21:29:07.262Z,102437.41
2023-02-13T21:31:44.220Z,102428.75
2023-02-13T21:34:13.250Z,102439.03
2023-02-13T21:36:41.182Z,102426.84
2023-02-13T21:39:10.832Z,102433.63
2023-02-13T21:41:43.871Z,102433.63
2023-02-13T21:44:14.235Z,102440.41
2023-02-13T21:46:43.514Z,102430.00
2023-02-13T21:49:16.802Z,102437.50
2023-02-13T21:51:45.273Z,102439.09
2023-02-13T21:54:13.017Z,102433.94
2023-02-13T21:56:41.935Z,102433.16
2023-02-13T21:59:13.378Z,102441.62
2023-02-13T22:01:46.026Z,102438.25
2023-02-13T22:04:14.027Z,102435.59
2023-02-13T22:06:41.550Z,102432.09
2023-02-13T22:09:14.871Z,102442.59
2023-02-13T22:11:43.034Z,102438.94
2023-02-13T22:14:17.176Z,102448.62
2023-02-13T22:16:46.189Z,102445.94
2023-02-13T22:19:15.734Z,102439.03
2023-02-13T22:21:43.613Z,102444.13
2023-02-13T22:24:11.436Z,102443.25
2023-02-13T22:26:41.364Z,102446.47
2023-02-13T22:29:11.350Z,102460.25
2023-02-13T22:31:39.696Z,102448.94
2023-02-13T22:34:07.724Z,102451.53
2023-02-13T22:36:38.991Z,102464.66
2023-02-13T22:39:08.108Z,102465.62
2023-02-13T22:41:35.591Z,102458.78
2023-02-13T22:44:03.512Z,102468.22
2023-02-13T22:46:32.790Z,102471.75
2023-02-13T22:49:00.438Z,102471.94
2023-02-13T22:51:33.302Z,102472.91
2023-02-13T22:54:01.730Z,102473.87
2023-02-13T22:56:30.520Z,102470.50
2023-02-13T22:58:58.884Z,102471.34
2023-02-13T23:01:28.130Z,102481.81
2023-02-13T23:03:56.991Z,102474.06
2023-02-13T23:06:25.164Z,102484.47
2023-02-13T23:08:53.969Z,102479.31
2023-02-13T23:11:42.809Z,102472.41
2023-02-13T23:14:11.095Z,102474.22
2023-02-13T23:16:58.969Z,102464.88
2023-02-13T23:19:27.696Z,102465.78
2023-02-13T23:21:55.893Z,102460.66
2023-02-13T23:24:24.042Z,102447.59
2023-02-13T23:26:52.214Z,102447.84
2023-02-13T23:29:19.928Z,102451.31
2023-02-13T23:31:47.696Z,102450.37
2023-02-13T23:34:15.606Z,102441.88
2023-02-13T23:36:43.037Z,102441.13
2023-02-13T23:39:10.573Z,102441.38
2023-02-13T23:41:38.509Z,102445.91
2023-02-13T23:44:06.155Z,102434.50
2023-02-13T23:46:33.808Z,102433.59
2023-02-13T23:49:01.603Z,102435.31
2023-02-13T23:51:29.248Z,102437.91
2023-02-13T23:53:57.516Z,102437.22
2023-02-13T23:56:25.765Z,102428.78
2023-02-13T23:58:56.039Z,102426.25
